createdAt,value
2022-11-13T00:01:18.545Z,3.90
2022-11-13T00:02:51.323Z,3.90
2022-11-13T00:04:24.159Z,3.90
2022-11-13T00:06:00.469Z,3.90
2022-11-13T00:07:33.208Z,3.90
2022-11-13T00:09:05.911Z,3.80
2022-11-13T00:10:38.641Z,3.80
2022-11-13T00:12:11.314Z,3.80
2022-11-13T00:13:44.029Z,3.70
2022-11-13T00:15:15.856Z,3.70
2022-11-13T00:16:48.534Z,3.70
2022-11-13T00:18:21.202Z,3.70
2022-11-13T00:19:53.927Z,3.70
2022-11-13T00:21:28.457Z,3.70
2022-11-13T00:23:00.117Z,3.60
2022-11-13T00:24:32.870Z,3.60
2022-11-13T00:26:05.577Z,3.60
2022-11-13T00:27:38.300Z,3.50
2022-11-13T00:29:11.051Z,3.50
2022-11-13T00:30:42.783Z,3.50
2022-11-13T00:32:15.556Z,3.50
2022-11-13T00:34:14.200Z,3.50
2022-11-13T00:35:41.089Z,3.50
2022-11-13T00:37:15.161Z,3.50
2022-11-13T00:38:48.048Z,3.40
2022-11-13T00:40:20.745Z,3.40
2022-11-13T00:41:53.539Z,3.40
2022-11-13T00:43:26.355Z,3.40
2022-11-13T00:44:59.124Z,3.40
2022-11-13T00:46:31.844Z,3.40
2022-11-13T00:48:06.463Z,3.30
2022-11-13T00:49:39.188Z,3.30
2022-11-13T00:51:11.976Z,3.20
2022-11-13T00:52:46.064Z,3.20
2022-11-13T00:54:18.824Z,3.20
2022-11-13T00:55:51.031Z,3.10
2022-11-13T00:57:25.036Z,3.10
2022-11-13T00:58:57.747Z,3.10
2022-11-13T01:00:30.475Z,3.10
2022-11-13T01:02:03.288Z,3.00
2022-11-13T01:03:36.682Z,3.00
2022-11-13T01:05:09.703Z,3.00
2022-11-13T01:06:42.446Z,3.00
2022-11-13T01:08:17.084Z,2.90
2022-11-13T01:09:50.700Z,2.90
2022-11-13T01:11:24.335Z,2.90
2022-11-13T01:12:57.015Z,2.80
2022-11-13T01:14:29.707Z,2.80
2022-11-13T01:16:06.060Z,2.70
2022-11-13T01:17:38.796Z,2.70
2022-11-13T01:19:11.518Z,2.70
2022-11-13T01:20:44.190Z,2.60
2022-11-13T01:22:16.941Z,2.60
2022-11-13T01:23:51.054Z,2.50
2022-11-13T01:25:22.799Z,2.50
2022-11-13T01:26:55.608Z,2.50
2022-11-13T01:28:27.626Z,2.50
2022-11-13T01:30:00.587Z,2.50
2022-11-13T01:31:33.329Z,2.40
2022-11-13T01:33:06.033Z,2.40
2022-11-13T01:34:38.735Z,2.40
2022-11-13T01:36:12.844Z,2.40
2022-11-13T01:37:45.574Z,2.40
2022-11-13T01:39:19.627Z,2.30
2022-11-13T01:40:51.447Z,2.30
2022-11-13T01:42:24.146Z,2.30
2022-11-13T01:43:57.271Z,2.30
2022-11-13T01:45:47.784Z,2.30
2022-11-13T01:47:21.829Z,2.30
2022-11-13T01:48:56.382Z,2.20
2022-11-13T01:50:29.198Z,2.30
2022-11-13T01:52:03.095Z,2.20
2022-11-13T01:53:34.834Z,2.30
2022-11-13T01:55:12.157Z,2.30
2022-11-13T01:56:45.120Z,2.30
2022-11-13T01:58:16.845Z,2.30
2022-11-13T01:59:51.026Z,2.30
2022-11-13T02:01:23.951Z,2.40
2022-11-13T02:02:56.834Z,2.40
2022-11-13T02:04:29.932Z,2.50
2022-11-13T02:06:01.896Z,2.50
2022-11-13T02:07:34.632Z,2.40
2022-11-13T02:09:07.608Z,2.50
2022-11-13T02:10:40.685Z,2.50
2022-11-13T02:12:14.555Z,2.50
2022-11-13T02:13:47.955Z,2.50
2022-11-13T02:15:23.445Z,2.50
2022-11-13T02:16:57.797Z,2.50
2022-11-13T02:18:31.700Z,2.60
2022-11-13T02:20:05.371Z,2.60
2022-11-13T02:21:43.057Z,2.60
2022-11-13T02:23:20.328Z,2.60
2022-11-13T02:24:55.907Z,2.60
2022-11-13T02:26:30.281Z,2.70
2022-11-13T02:28:02.970Z,2.70
2022-11-13T02:29:35.680Z,2.70
2022-11-13T02:31:09.587Z,2.70
2022-11-13T02:32:45.989Z,2.70
2022-11-13T02:34:18.651Z,2.70
2022-11-13T02:35:50.416Z,2.70
2022-11-13T02:37:23.117Z,2.70
2022-11-13T02:38:56.563Z,2.70
2022-11-13T02:40:30.968Z,2.70
2022-11-13T02:42:03.667Z,2.70
2022-11-13T02:43:36.382Z,2.60
2022-11-13T02:45:09.417Z,2.60
2022-11-13T02:46:42.136Z,2.60
2022-11-13T02:48:14.816Z,2.60
2022-11-13T02:49:47.481Z,2.60
2022-11-13T02:51:19.173Z,2.60
2022-11-13T02:52:51.892Z,2.60
2022-11-13T02:54:24.587Z,2.60
2022-11-13T02:55:57.655Z,2.60
2022-11-13T02:57:30.349Z,2.60
2022-11-13T02:59:03.064Z,2.60
2022-11-13T03:00:34.843Z,2.60
2022-11-13T03:02:07.596Z,2.60
2022-11-13T03:03:57.111Z,2.60
2022-11-13T03:05:30.362Z,2.60
2022-11-13T03:07:03.102Z,2.60
2022-11-13T03:08:36.657Z,2.60
2022-11-13T03:10:10.153Z,2.70
2022-11-13T03:11:45.180Z,2.70
2022-11-13T03:13:16.898Z,2.70
2022-11-13T03:14:49.600Z,2.60
2022-11-13T03:16:22.332Z,2.70
2022-11-13T03:17:54.029Z,2.60
2022-11-13T03:19:26.876Z,2.60
2022-11-13T03:20:59.631Z,2.60
2022-11-13T03:22:32.359Z,2.60
2022-11-13T03:24:05.159Z,2.60
2022-11-13T03:25:36.860Z,2.60
2022-11-13T03:27:10.883Z,2.60
2022-11-13T03:28:43.941Z,2.60
2022-11-13T03:30:16.768Z,2.60
2022-11-13T03:31:49.466Z,2.50
2022-11-13T03:33:22.144Z,2.50
2022-11-13T03:34:54.806Z,2.50
2022-11-13T03:36:27.623Z,2.50
2022-11-13T03:38:00.300Z,2.50
2022-11-13T03:39:33.008Z,2.50
2022-11-13T03:41:06.019Z,2.40
2022-11-13T03:42:40.074Z,2.40
2022-11-13T03:44:12.854Z,2.40
2022-11-13T03:45:46.031Z,2.40
2022-11-13T03:47:18.707Z,2.30
2022-11-13T03:48:51.383Z,2.30
2022-11-13T03:50:24.078Z,2.20
2022-11-13T03:51:55.897Z,2.20
2022-11-13T03:53:28.632Z,2.20
2022-11-13T03:55:01.361Z,2.10
2022-11-13T03:56:34.025Z,2.10
2022-11-13T03:58:07.087Z,2.10
2022-11-13T03:59:39.786Z,2.10
2022-11-13T04:01:12.462Z,2.10
2022-11-13T04:02:44.151Z,2.10
2022-11-13T04:04:16.926Z,2.00
2022-11-13T04:05:49.954Z,2.00
2022-11-13T04:07:22.699Z,1.90
2022-11-13T04:08:55.467Z,1.90
2022-11-13T04:10:28.215Z,1.90
2022-11-13T04:12:00.882Z,1.90
2022-11-13T04:13:34.026Z,1.90
2022-11-13T04:15:07.303Z,1.90
2022-11-13T04:16:39.998Z,1.90
2022-11-13T04:18:11.730Z,1.90
2022-11-13T04:19:44.398Z,1.80
2022-11-13T04:21:17.091Z,1.80
2022-11-13T04:22:49.731Z,1.80
2022-11-13T04:24:21.493Z,1.70
2022-11-13T04:25:54.161Z,1.70
2022-11-13T04:27:26.845Z,1.70
2022-11-13T04:29:00.907Z,1.70
2022-11-13T04:30:33.634Z,1.70
2022-11-13T04:32:06.654Z,1.70
2022-11-13T04:33:39.323Z,1.70
2022-11-13T04:35:12.185Z,1.70
2022-11-13T04:36:44.854Z,1.60
2022-11-13T04:38:17.580Z,1.60
2022-11-13T04:39:50.361Z,1.50
2022-11-13T04:41:40.487Z,1.50
2022-11-13T04:43:12.168Z,2.00
2022-11-13T04:44:46.215Z,1.50
2022-11-13T04:46:18.930Z,1.50
2022-11-13T04:47:52.194Z,1.50
2022-11-13T04:49:24.872Z,1.50
2022-11-13T04:50:57.616Z,1.50
2022-11-13T04:52:29.373Z,1.50
2022-11-13T04:54:02.167Z,1.50
2022-11-13T04:55:34.848Z,1.40
2022-11-13T04:57:07.514Z,1.40
2022-11-13T04:58:40.217Z,1.40
2022-11-13T05:00:14.864Z,1.40
2022-11-13T05:01:46.725Z,1.40
2022-11-13T05:03:19.464Z,1.30
2022-11-13T05:04:52.172Z,1.30
2022-11-13T05:06:24.956Z,1.30
2022-11-13T05:07:57.671Z,1.30
2022-11-13T05:09:29.373Z,1.30
2022-11-13T05:11:02.194Z,1.30
2022-11-13T05:12:34.925Z,1.20
2022-11-13T05:14:07.629Z,1.20
2022-11-13T05:15:41.663Z,1.20
2022-11-13T05:17:14.679Z,1.20
2022-11-13T05:18:47.389Z,1.20
2022-11-13T05:20:20.147Z,1.20
2022-11-13T05:21:52.868Z,1.10
2022-11-13T05:23:24.947Z,1.10
2022-11-13T05:24:57.648Z,1.00
2022-11-13T05:26:30.342Z,1.10
2022-11-13T05:28:03.047Z,1.10
2022-11-13T05:29:35.787Z,1.10
2022-11-13T05:31:10.711Z,1.20
2022-11-13T05:32:43.443Z,1.20
2022-11-13T05:34:16.244Z,1.30
2022-11-13T05:35:47.963Z,1.40
2022-11-13T05:37:20.727Z,1.40
2022-11-13T05:38:53.435Z,1.40
2022-11-13T05:40:26.217Z,1.50
2022-11-13T05:41:59.012Z,1.40
2022-11-13T05:43:30.718Z,1.50
2022-11-13T05:45:03.462Z,1.60
2022-11-13T05:46:37.573Z,1.60
2022-11-13T05:48:10.307Z,1.50
2022-11-13T05:49:43.007Z,1.50
2022-11-13T05:51:15.452Z,1.60
2022-11-13T05:52:48.140Z,1.60
2022-11-13T05:54:20.906Z,1.60
2022-11-13T05:55:53.619Z,1.60
2022-11-13T05:57:26.365Z,1.60
2022-11-13T05:58:59.724Z,1.60
2022-11-13T06:00:32.406Z,1.60
2022-11-13T06:02:06.697Z,1.60
2022-11-13T06:03:38.551Z,1.70
2022-11-13T06:05:11.463Z,1.60
2022-11-13T06:06:44.296Z,1.60
2022-11-13T06:08:17.073Z,1.80
2022-11-13T06:09:49.843Z,1.70
2022-11-13T06:11:23.147Z,1.70
2022-11-13T06:12:55.937Z,1.70
2022-11-13T06:14:28.828Z,1.70
2022-11-13T06:16:01.296Z,1.70
2022-11-13T06:17:35.379Z,1.70
2022-11-13T06:19:09.271Z,1.70
2022-11-13T06:20:40.993Z,1.60
2022-11-13T06:22:13.764Z,1.50
2022-11-13T06:23:46.726Z,1.50
2022-11-13T06:25:19.454Z,1.50
2022-11-13T06:26:53.365Z,1.50
2022-11-13T06:28:25.199Z,1.60
2022-11-13T06:29:57.997Z,1.60
2022-11-13T06:31:31.715Z,1.60
2022-11-13T06:33:05.763Z,1.70
2022-11-13T06:34:38.530Z,1.70
2022-11-13T06:36:12.590Z,1.70
2022-11-13T06:37:45.387Z,1.70
2022-11-13T06:39:18.222Z,1.70
2022-11-13T06:40:50.966Z,1.70
2022-11-13T06:42:23.710Z,1.70
2022-11-13T06:44:01.286Z,1.70
2022-11-13T06:45:36.333Z,1.60
2022-11-13T06:47:09.553Z,1.60
2022-11-13T06:48:43.712Z,1.60
2022-11-13T06:50:16.637Z,1.70
2022-11-13T06:51:49.346Z,1.70
2022-11-13T06:53:22.012Z,1.80
2022-11-13T06:54:54.753Z,1.80
2022-11-13T06:56:27.481Z,1.90
2022-11-13T06:58:00.238Z,1.90
2022-11-13T06:59:32.963Z,1.90
2022-11-13T07:01:05.667Z,1.90
2022-11-13T07:02:38.415Z,2.00
2022-11-13T07:04:14.201Z,2.00
2022-11-13T07:05:46.059Z,2.10
2022-11-13T07:07:18.918Z,2.10
2022-11-13T07:08:52.162Z,2.10
2022-11-13T07:10:24.999Z,2.10
2022-11-13T07:11:58.062Z,2.00
2022-11-13T07:13:30.812Z,2.00
2022-11-13T07:15:03.720Z,1.90
2022-11-13T07:17:04.289Z,1.90
2022-11-13T07:18:29.869Z,1.90
2022-11-13T07:20:04.647Z,1.90
2022-11-13T07:21:37.495Z,1.90
2022-11-13T07:23:09.641Z,1.90
2022-11-13T07:24:42.618Z,1.90
2022-11-13T07:26:15.405Z,2.00
2022-11-13T07:27:48.347Z,2.10
2022-11-13T07:29:21.129Z,2.10
2022-11-13T07:30:53.865Z,2.10
2022-11-13T07:32:26.681Z,2.20
2022-11-13T07:33:59.820Z,2.20
2022-11-13T07:35:34.037Z,2.30
2022-11-13T07:37:07.569Z,2.00
2022-11-13T07:38:40.467Z,2.30
2022-11-13T07:40:13.661Z,2.40
2022-11-13T07:41:48.100Z,2.40
2022-11-13T07:43:21.030Z,2.50
2022-11-13T07:44:55.247Z,2.60
2022-11-13T07:46:28.488Z,2.60
2022-11-13T07:48:01.493Z,2.60
2022-11-13T07:49:34.396Z,2.70
2022-11-13T07:51:08.617Z,2.70
2022-11-13T07:52:41.377Z,2.70
2022-11-13T07:54:14.264Z,2.80
2022-11-13T07:55:46.361Z,2.80
2022-11-13T07:57:20.884Z,2.90
2022-11-13T07:58:53.777Z,3.40
2022-11-13T08:00:26.713Z,3.00
2022-11-13T08:01:59.884Z,3.10
2022-11-13T08:03:32.759Z,3.20
2022-11-13T08:05:05.784Z,3.20
2022-11-13T08:06:39.979Z,3.30
2022-11-13T08:08:13.449Z,3.30
2022-11-13T08:09:46.363Z,3.30
2022-11-13T08:11:19.263Z,3.30
2022-11-13T08:12:58.849Z,3.30
2022-11-13T08:14:31.792Z,3.30
2022-11-13T08:16:05.066Z,3.30
2022-11-13T08:17:37.941Z,3.40
2022-11-13T08:19:11.007Z,3.30
2022-11-13T08:20:43.888Z,3.40
2022-11-13T08:22:17.982Z,3.40
2022-11-13T08:23:51.363Z,3.50
2022-11-13T08:25:24.136Z,3.50
2022-11-13T08:26:57.215Z,3.60
2022-11-13T08:28:30.441Z,3.60
2022-11-13T08:30:03.383Z,3.60
2022-11-13T08:31:36.135Z,3.60
2022-11-13T08:33:08.810Z,3.60
2022-11-13T08:34:41.671Z,3.60
2022-11-13T08:36:14.358Z,3.60
2022-11-13T08:37:48.461Z,3.50
2022-11-13T08:39:21.173Z,3.40
2022-11-13T08:40:57.186Z,3.20
2022-11-13T08:42:29.986Z,3.10
2022-11-13T08:44:02.764Z,3.10
2022-11-13T08:45:35.658Z,3.10
2022-11-13T08:47:08.431Z,3.10
2022-11-13T08:48:41.191Z,2.70
2022-11-13T08:50:14.248Z,3.10
2022-11-13T08:51:56.181Z,3.10
2022-11-13T08:53:30.275Z,3.10
2022-11-13T08:55:03.059Z,3.10
2022-11-13T08:56:35.822Z,3.20
2022-11-13T08:58:08.635Z,3.30
2022-11-13T08:59:41.507Z,3.30
2022-11-13T09:01:14.268Z,3.40
2022-11-13T09:02:47.332Z,3.50
2022-11-13T09:04:20.131Z,3.60
2022-11-13T09:05:53.050Z,3.70
2022-11-13T09:07:27.498Z,3.80
2022-11-13T09:09:01.889Z,3.80
2022-11-13T09:10:34.696Z,3.90
2022-11-13T09:12:07.690Z,3.90
2022-11-13T09:13:44.462Z,4.00
2022-11-13T09:15:24.285Z,4.10
2022-11-13T09:16:57.565Z,4.20
2022-11-13T09:18:31.381Z,4.30
2022-11-13T09:20:06.854Z,4.30
2022-11-13T09:21:41.603Z,4.40
2022-11-13T09:23:14.560Z,4.50
2022-11-13T09:24:48.704Z,4.50
2022-11-13T09:26:21.558Z,4.50
2022-11-13T09:27:55.339Z,4.60
2022-11-13T09:29:28.629Z,4.60
2022-11-13T09:31:04.446Z,4.60
2022-11-13T09:32:37.142Z,4.70
2022-11-13T09:34:10.087Z,4.70
2022-11-13T09:35:45.525Z,4.80
2022-11-13T09:37:18.745Z,4.90
2022-11-13T09:38:51.655Z,4.90
2022-11-13T09:40:29.192Z,5.00
2022-11-13T09:42:13.948Z,5.00
2022-11-13T09:43:48.593Z,5.10
2022-11-13T09:45:21.357Z,5.10
2022-11-13T09:46:55.741Z,5.20
2022-11-13T09:48:31.834Z,5.30
2022-11-13T09:50:06.704Z,5.30
2022-11-13T09:51:39.911Z,5.40
2022-11-13T09:53:13.329Z,5.50
2022-11-13T09:54:46.229Z,5.60
2022-11-13T09:56:25.713Z,5.60
2022-11-13T09:58:01.456Z,5.70
2022-11-13T09:59:38.146Z,5.70
2022-11-13T10:01:16.240Z,5.80
2022-11-13T10:02:58.381Z,5.90
2022-11-13T10:04:35.740Z,5.90
2022-11-13T10:06:11.661Z,6.00
2022-11-13T10:07:48.134Z,6.10
2022-11-13T10:09:25.267Z,6.20
2022-11-13T10:11:03.041Z,6.20
2022-11-13T10:12:37.193Z,6.30
2022-11-13T10:14:14.125Z,6.40
2022-11-13T10:15:49.253Z,6.50
2022-11-13T10:17:27.149Z,6.50
2022-11-13T10:19:05.440Z,6.60
2022-11-13T10:20:39.832Z,6.70
2022-11-13T10:22:34.193Z,6.80
2022-11-13T10:24:24.115Z,6.80
2022-11-13T10:26:03.045Z,6.90
2022-11-13T10:27:37.249Z,7.00
2022-11-13T10:29:12.387Z,7.00
2022-11-13T10:30:45.970Z,7.10
2022-11-13T10:32:20.871Z,7.20
2022-11-13T10:33:55.492Z,7.30
2022-11-13T10:35:38.221Z,7.30
2022-11-13T10:37:20.254Z,7.40
2022-11-13T10:38:55.888Z,7.50
2022-11-13T10:40:29.494Z,7.50
2022-11-13T10:42:02.242Z,7.60
2022-11-13T10:43:36.585Z,7.70
2022-11-13T10:45:16.933Z,7.70
2022-11-13T10:46:49.971Z,7.80
2022-11-13T10:48:23.292Z,7.90
2022-11-13T10:49:56.338Z,7.90
2022-11-13T10:51:30.215Z,8.00
2022-11-13T10:53:03.146Z,8.00
2022-11-13T10:54:35.954Z,8.10
2022-11-13T10:56:23.576Z,8.30
2022-11-13T10:57:57.085Z,8.30
2022-11-13T10:59:39.971Z,8.40
2022-11-13T11:01:17.315Z,8.40
2022-11-13T11:02:50.675Z,8.50
2022-11-13T11:04:27.391Z,8.60
2022-11-13T11:06:02.046Z,8.70
2022-11-13T11:07:40.409Z,8.80
2022-11-13T11:09:19.323Z,8.90
2022-11-13T11:11:14.127Z,8.90
2022-11-13T11:12:52.522Z,9.00
2022-11-13T11:14:27.927Z,9.10
2022-11-13T11:16:03.718Z,9.10
2022-11-13T11:17:40.149Z,9.20
2022-11-13T11:19:14.492Z,9.30
2022-11-13T11:20:50.352Z,9.30
2022-11-13T11:22:25.689Z,9.40
2022-11-13T11:24:00.429Z,9.20
2022-11-13T11:25:37.542Z,9.50
2022-11-13T11:27:14.452Z,9.50
2022-11-13T11:28:49.538Z,9.70
2022-11-13T11:30:23.286Z,9.70
2022-11-13T11:31:59.669Z,9.70
2022-11-13T11:33:34.085Z,9.80
2022-11-13T11:35:11.802Z,9.80
2022-11-13T11:36:52.049Z,9.90
2022-11-13T11:38:29.236Z,9.90
2022-11-13T11:40:05.549Z,10.00
2022-11-13T11:41:45.422Z,10.00
2022-11-13T11:43:21.414Z,10.00
2022-11-13T11:44:59.100Z,10.10
2022-11-13T11:46:32.183Z,10.20
2022-11-13T11:48:10.277Z,10.40
2022-11-13T11:49:44.019Z,10.50
2022-11-13T11:51:22.048Z,10.50
2022-11-13T11:52:58.214Z,10.60
2022-11-13T11:54:38.592Z,10.70
2022-11-13T11:56:19.953Z,10.70
2022-11-13T11:58:00.214Z,10.80
2022-11-13T11:59:39.692Z,10.90
2022-11-13T12:01:17.123Z,11.00
2022-11-13T12:02:55.638Z,11.10
2022-11-13T12:04:44.228Z,11.10
2022-11-13T12:06:21.503Z,11.20
2022-11-13T12:07:59.897Z,11.30
2022-11-13T12:09:36.387Z,11.40
2022-11-13T12:11:14.093Z,11.40
2022-11-13T12:12:52.238Z,11.40
2022-11-13T12:14:30.664Z,11.50
2022-11-13T12:16:06.556Z,11.50
2022-11-13T12:17:46.013Z,11.60
2022-11-13T12:19:23.768Z,11.80
2022-11-13T12:21:04.992Z,11.80
2022-11-13T12:22:43.539Z,11.90
2022-11-13T12:24:24.338Z,12.00
2022-11-13T12:26:01.780Z,12.00
2022-11-13T12:27:38.527Z,12.00
2022-11-13T12:29:18.072Z,12.20
2022-11-13T12:30:56.347Z,12.20
2022-11-13T12:32:34.484Z,12.30
2022-11-13T12:34:14.220Z,12.30
2022-11-13T12:35:47.767Z,12.40
2022-11-13T12:37:27.657Z,12.50
2022-11-13T12:39:03.636Z,12.50
2022-11-13T12:40:44.300Z,12.60
2022-11-13T12:42:21.631Z,12.60
2022-11-13T12:44:48.506Z,12.70
2022-11-13T12:46:21.895Z,12.80
2022-11-13T12:47:54.719Z,12.80
2022-11-13T12:49:28.240Z,12.80
2022-11-13T12:51:03.175Z,12.90
2022-11-13T12:52:37.739Z,12.90
2022-11-13T12:54:11.028Z,12.90
2022-11-13T12:55:43.858Z,13.00
2022-11-13T12:57:27.282Z,12.90
2022-11-13T13:01:01.925Z,12.90
2022-11-13T13:02:41.121Z,13.00
2022-11-13T13:04:26.698Z,13.00
2022-11-13T13:06:06.496Z,13.00
2022-11-13T13:07:47.546Z,13.00
2022-11-13T13:09:25.993Z,13.00
2022-11-13T13:11:05.465Z,13.00
2022-11-13T13:12:43.093Z,13.00
2022-11-13T13:14:26.641Z,13.10
2022-11-13T13:16:00.404Z,13.10
2022-11-13T13:17:33.245Z,13.10
2022-11-13T13:19:09.732Z,13.10
2022-11-13T13:20:46.345Z,13.10
2022-11-13T13:22:26.982Z,13.00
2022-11-13T13:24:09.414Z,13.00
2022-11-13T13:25:42.293Z,13.00
2022-11-13T13:27:25.742Z,13.00
2022-11-13T13:29:02.455Z,13.00
2022-11-13T13:30:37.956Z,12.90
2022-11-13T13:32:20.453Z,12.90
2022-11-13T13:33:58.913Z,13.00
2022-11-13T13:35:35.335Z,12.90
2022-11-13T13:37:14.085Z,12.90
2022-11-13T13:38:52.427Z,12.90
2022-11-13T13:40:31.047Z,12.90
2022-11-13T13:42:10.760Z,12.90
2022-11-13T13:43:50.871Z,12.90
2022-11-13T13:45:28.371Z,12.90
2022-11-13T13:47:01.173Z,12.90
2022-11-13T13:48:38.530Z,12.90
2022-11-13T13:50:15.428Z,12.80
2022-11-13T13:51:49.962Z,12.80
2022-11-13T13:53:24.258Z,12.80
2022-11-13T13:54:57.486Z,12.80
2022-11-13T13:56:33.536Z,12.80
2022-11-13T13:58:09.520Z,12.80
2022-11-13T13:59:43.404Z,12.80
2022-11-13T14:01:26.714Z,12.80
2022-11-13T14:02:59.550Z,12.80
2022-11-13T14:04:35.054Z,12.80
2022-11-13T14:06:11.785Z,12.80
2022-11-13T14:07:47.061Z,12.80
2022-11-13T14:09:20.435Z,12.80
2022-11-13T14:10:53.428Z,12.80
2022-11-13T14:12:27.559Z,12.80
2022-11-13T14:14:07.762Z,12.80
2022-11-13T14:15:40.738Z,12.80
2022-11-13T14:17:13.647Z,12.80
2022-11-13T14:18:46.527Z,12.80
2022-11-13T14:20:19.747Z,12.80
2022-11-13T14:21:54.181Z,12.70
2022-11-13T14:23:28.522Z,12.70
2022-11-13T14:25:01.775Z,12.70
2022-11-13T14:26:34.796Z,12.70
2022-11-13T14:28:14.726Z,12.70
2022-11-13T14:29:48.454Z,12.70
2022-11-13T14:31:25.922Z,12.70
2022-11-13T14:33:09.985Z,12.70
2022-11-13T14:34:44.455Z,12.60
2022-11-13T14:36:17.843Z,12.60
2022-11-13T14:37:51.432Z,12.60
2022-11-13T14:39:25.783Z,12.50
2022-11-13T14:40:59.345Z,12.50
2022-11-13T14:42:36.779Z,12.40
2022-11-13T14:44:12.729Z,12.30
2022-11-13T14:45:54.448Z,12.30
2022-11-13T14:47:28.610Z,12.20
2022-11-13T14:49:01.632Z,12.20
2022-11-13T14:50:35.759Z,12.10
2022-11-13T14:52:21.152Z,12.10
2022-11-13T14:54:03.906Z,12.00
2022-11-13T14:55:50.702Z,12.00
2022-11-13T14:57:23.547Z,11.90
2022-11-13T14:58:56.439Z,11.80
2022-11-13T15:00:32.744Z,11.80
2022-11-13T15:02:06.924Z,11.80
2022-11-13T15:03:39.877Z,11.70
2022-11-13T15:05:12.651Z,11.70
2022-11-13T15:06:45.700Z,11.60
2022-11-13T15:08:18.500Z,11.50
2022-11-13T15:09:51.580Z,11.40
2022-11-13T15:11:25.456Z,11.40
2022-11-13T15:12:58.241Z,11.30
2022-11-13T15:14:31.455Z,11.20
2022-11-13T15:16:06.136Z,11.20
2022-11-13T15:17:39.011Z,11.10
2022-11-13T15:19:13.633Z,11.10
2022-11-13T15:20:46.629Z,11.00
2022-11-13T15:22:27.243Z,11.00
2022-11-13T15:24:01.133Z,10.90
2022-11-13T15:25:33.928Z,10.80
2022-11-13T15:27:06.962Z,10.80
2022-11-13T15:28:40.658Z,10.80
2022-11-13T15:30:13.888Z,10.70
2022-11-13T15:31:48.801Z,10.60
2022-11-13T15:33:21.670Z,10.60
2022-11-13T15:34:54.474Z,10.60
2022-11-13T15:36:27.336Z,10.60
2022-11-13T15:38:00.285Z,10.60
2022-11-13T15:39:33.090Z,10.50
2022-11-13T15:41:09.906Z,10.50
2022-11-13T15:42:43.785Z,10.40
2022-11-13T15:44:17.122Z,10.30
2022-11-13T15:45:50.049Z,10.30
2022-11-13T15:47:28.963Z,10.30
2022-11-13T15:49:01.890Z,10.30
2022-11-13T15:50:34.796Z,10.20
2022-11-13T15:52:08.675Z,10.10
2022-11-13T15:53:41.485Z,10.10
2022-11-13T15:55:18.404Z,10.10
2022-11-13T15:56:51.320Z,10.00
2022-11-13T15:58:24.114Z,10.00
2022-11-13T15:59:57.014Z,9.90
2022-11-13T16:01:30.332Z,9.90
2022-11-13T16:03:11.191Z,9.80
2022-11-13T16:04:56.050Z,9.70
2022-11-13T16:06:30.440Z,9.60
2022-11-13T16:08:03.448Z,9.60
2022-11-13T16:09:36.460Z,9.60
2022-11-13T16:11:11.418Z,9.50
2022-11-13T16:12:45.860Z,9.60
2022-11-13T16:14:23.427Z,9.40
2022-11-13T16:15:57.933Z,9.40
2022-11-13T16:17:33.949Z,9.30
2022-11-13T16:19:13.170Z,9.30
2022-11-13T16:20:46.093Z,9.20
2022-11-13T16:22:20.722Z,9.10
2022-11-13T16:23:54.042Z,9.10
2022-11-13T16:25:26.902Z,9.10
2022-11-13T16:27:01.073Z,9.00
2022-11-13T16:28:42.002Z,9.00
2022-11-13T16:30:28.472Z,8.90
2022-11-13T16:32:01.386Z,8.90
2022-11-13T16:33:34.170Z,8.90
2022-11-13T16:35:12.546Z,8.80
2022-11-13T16:36:45.659Z,8.70
2022-11-13T16:38:18.481Z,8.60
2022-11-13T16:39:51.426Z,8.60
2022-11-13T16:41:24.980Z,8.50
2022-11-13T16:42:58.578Z,8.50
2022-11-13T16:44:31.454Z,8.40
2022-11-13T16:46:14.003Z,8.30
2022-11-13T16:47:47.013Z,8.20
2022-11-13T16:49:20.306Z,8.10
2022-11-13T16:50:54.620Z,8.10
2022-11-13T16:52:27.979Z,8.00
2022-11-13T16:54:00.996Z,8.00
2022-11-13T16:55:33.848Z,7.90
2022-11-13T16:57:06.621Z,7.90
2022-11-13T16:58:39.395Z,7.80
2022-11-13T17:00:14.282Z,7.80
2022-11-13T17:01:47.330Z,7.70
2022-11-13T17:03:20.257Z,7.60
2022-11-13T17:04:56.503Z,7.60
2022-11-13T17:06:31.834Z,7.50
2022-11-13T17:08:06.138Z,7.50
2022-11-13T17:09:40.162Z,7.40
2022-11-13T17:11:14.169Z,7.30
2022-11-13T17:12:50.648Z,7.20
2022-11-13T17:14:23.915Z,7.20
2022-11-13T17:16:01.094Z,7.10
2022-11-13T17:17:34.355Z,7.00
2022-11-13T17:19:08.032Z,6.90
2022-11-13T17:20:40.955Z,6.80
2022-11-13T17:22:16.957Z,6.80
2022-11-13T17:23:55.125Z,6.70
2022-11-13T17:25:28.209Z,6.60
2022-11-13T17:27:01.167Z,6.50
2022-11-13T17:28:35.539Z,6.50
2022-11-13T17:30:09.328Z,6.50
2022-11-13T17:31:42.157Z,6.40
2022-11-13T17:33:16.463Z,6.30
2022-11-13T17:34:49.317Z,6.30
2022-11-13T17:36:22.262Z,6.20
2022-11-13T17:37:56.805Z,6.10
2022-11-13T17:39:29.992Z,6.10
2022-11-13T17:41:05.315Z,6.00
2022-11-13T17:42:38.635Z,6.00
2022-11-13T17:44:12.210Z,6.00
2022-11-13T17:45:49.605Z,5.90
2022-11-13T17:47:22.500Z,5.90
2022-11-13T17:48:55.424Z,5.90
2022-11-13T17:50:28.633Z,5.90
2022-11-13T17:52:01.833Z,5.90
2022-11-13T17:53:36.161Z,5.90
2022-11-13T17:55:11.858Z,5.80
2022-11-13T17:56:45.167Z,5.80
2022-11-13T17:58:18.114Z,5.80
2022-11-13T17:59:50.909Z,5.70
2022-11-13T18:01:24.240Z,5.80
2022-11-13T18:02:57.128Z,5.70
2022-11-13T18:04:30.138Z,5.60
2022-11-13T18:06:04.868Z,5.60
2022-11-13T18:07:38.109Z,5.50
2022-11-13T18:09:12.375Z,5.50
2022-11-13T18:10:45.270Z,5.50
2022-11-13T18:12:18.218Z,5.40
2022-11-13T18:13:51.867Z,5.40
2022-11-13T18:15:25.034Z,5.50
2022-11-13T18:16:57.925Z,5.40
2022-11-13T18:18:30.860Z,5.40
2022-11-13T18:20:03.665Z,5.30
2022-11-13T18:21:37.202Z,5.30
2022-11-13T18:23:10.126Z,5.20
2022-11-13T18:24:44.589Z,5.20
2022-11-13T18:26:18.904Z,5.10
2022-11-13T18:27:51.767Z,5.10
2022-11-13T18:29:24.657Z,5.20
2022-11-13T18:30:57.491Z,5.10
2022-11-13T18:32:30.350Z,5.10
2022-11-13T18:34:04.143Z,5.00
2022-11-13T18:35:37.056Z,5.00
2022-11-13T18:37:10.088Z,5.00
2022-11-13T18:38:44.130Z,5.00
2022-11-13T18:40:18.583Z,5.00
2022-11-13T18:41:51.560Z,5.00
2022-11-13T18:43:24.344Z,5.00
2022-11-13T18:44:59.512Z,4.90
2022-11-13T18:46:35.474Z,4.80
2022-11-13T18:48:08.242Z,4.80
2022-11-13T18:49:40.991Z,4.80
2022-11-13T18:51:14.826Z,4.80
2022-11-13T18:52:47.601Z,4.70
2022-11-13T18:54:20.549Z,4.70
2022-11-13T18:55:59.274Z,4.70
2022-11-13T18:57:32.053Z,4.60
2022-11-13T18:59:04.889Z,4.60
2022-11-13T19:00:37.654Z,4.60
2022-11-13T19:02:11.557Z,4.60
2022-11-13T19:04:01.654Z,4.60
2022-11-13T19:05:37.402Z,4.60
2022-11-13T19:07:12.103Z,4.50
2022-11-13T19:08:45.691Z,4.50
2022-11-13T19:10:18.744Z,4.50
2022-11-13T19:11:54.823Z,4.50
2022-11-13T19:13:27.600Z,4.60
2022-11-13T19:15:00.797Z,4.60
2022-11-13T19:16:34.403Z,4.60
2022-11-13T19:18:08.118Z,4.50
2022-11-13T19:19:42.244Z,4.50
2022-11-13T19:21:16.266Z,4.80
2022-11-13T19:22:49.234Z,4.40
2022-11-13T19:24:22.111Z,4.40
2022-11-13T19:25:54.878Z,4.40
2022-11-13T19:27:29.053Z,4.40
2022-11-13T19:29:01.855Z,4.30
2022-11-13T19:30:34.582Z,4.30
2022-11-13T19:32:07.450Z,4.20
2022-11-13T19:33:40.729Z,4.20
2022-11-13T19:35:13.433Z,4.20
2022-11-13T19:36:47.860Z,4.20
2022-11-13T19:38:20.793Z,4.20
2022-11-13T19:39:53.580Z,4.10
2022-11-13T19:41:27.003Z,4.20
2022-11-13T19:43:01.250Z,4.10
2022-11-13T19:44:34.216Z,4.10
2022-11-13T19:46:07.193Z,4.10
2022-11-13T19:47:40.136Z,4.10
2022-11-13T19:49:13.349Z,4.10
2022-11-13T19:50:47.407Z,4.10
2022-11-13T19:52:20.225Z,4.10
2022-11-13T19:53:53.967Z,4.10
2022-11-13T19:55:26.813Z,4.10
2022-11-13T19:56:59.576Z,4.10
2022-11-13T19:58:33.802Z,4.00
2022-11-13T20:00:07.043Z,4.10
2022-11-13T20:01:40.054Z,4.10
2022-11-13T20:03:12.941Z,4.00
2022-11-13T20:04:45.865Z,4.00
2022-11-13T20:06:18.694Z,4.00
2022-11-13T20:07:51.535Z,4.00
2022-11-13T20:09:24.461Z,3.90
2022-11-13T20:11:01.661Z,3.90
2022-11-13T20:12:34.458Z,3.90
2022-11-13T20:14:08.748Z,3.90
2022-11-13T20:15:41.954Z,3.90
2022-11-13T20:17:14.788Z,3.90
2022-11-13T20:18:47.734Z,3.90
2022-11-13T20:20:20.739Z,3.90
2022-11-13T20:21:54.596Z,3.90
2022-11-13T20:23:27.656Z,3.90
2022-11-13T20:25:00.684Z,3.90
2022-11-13T20:26:33.745Z,3.90
2022-11-13T20:28:06.718Z,3.90
2022-11-13T20:29:41.142Z,3.90
2022-11-13T20:31:16.314Z,3.90
2022-11-13T20:32:49.366Z,3.90
2022-11-13T20:34:23.318Z,3.90
2022-11-13T20:35:56.116Z,3.90
2022-11-13T20:37:28.990Z,3.90
2022-11-13T20:39:04.436Z,3.90
2022-11-13T20:40:41.030Z,3.80
2022-11-13T20:42:13.819Z,3.80
2022-11-13T20:43:46.561Z,3.80
2022-11-13T20:45:21.030Z,3.80
2022-11-13T20:46:54.226Z,3.80
2022-11-13T20:48:29.415Z,3.80
2022-11-13T20:50:02.665Z,3.70
2022-11-13T20:51:35.674Z,3.70
2022-11-13T20:53:08.504Z,3.70